Time;durP1;ratioP1;P1;durP2;ratioP2;P2;SDS_P1;SDS_P2;PMS_P1;PMS_P2;Temp;Humidity;BMP_temperature;BMP_pressure;BME280_temperature;BME280_humidity;BME280_pressure;Samples;Min_cycle;Max_cycle;Signal;HPM_P1;HPM_P2
2022/07/01 00:01:47;;;;;;;3.70;2.40;;;;;;;;;;4970866;28;20678;-86
2022/07/01 00:04:16;;;;;;;4.33;2.60;;;;;;;;;;4970541;28;20211;-85
2022/07/01 00:06:43;;;;;;;2.53;2.33;;;;;;;;;;4971350;28;20205;-86
2022/07/01 00:09:10;;;;;;;3.20;2.20;;;;;;;;;;4970825;28;20258;-85
2022/07/01 00:11:38;;;;;;;5.43;2.20;;;;;;;;;;4970535;28;20201;-85
2022/07/01 00:14:05;;;;;;;4.17;2.87;;;;;;;;;;4970384;28;20254;-85
2022/07/01 00:16:32;;;;;;;6.10;2.20;;;;;;;;;;4970725;28;20320;-86
2022/07/01 00:19:08;;;;;;;2.63;2.43;;;;;;;;;;4970704;28;20205;-85
2022/07/01 00:21:37;;;;;;;3.37;2.37;;;;;;;;;;4970511;28;20254;-85
2022/07/01 00:24:04;;;;;;;3.57;2.33;;;;;;;;;;4970780;28;20302;-85
2022/07/01 00:26:34;;;;;;;5.87;2.60;;;;;;;;;;4969623;28;20205;-85
2022/07/01 00:29:01;;;;;;;3.37;2.60;;;;;;;;;;4970678;28;20197;-85
2022/07/01 00:31:28;;;;;;;2.57;2.37;;;;;;;;;;4970572;28;20262;-85
2022/07/01 00:33:55;;;;;;;4.53;2.17;;;;;;;;;;4970783;28;20740;-85
2022/07/01 00:36:22;;;;;;;3.87;2.67;;;;;;;;;;4970730;28;20205;-85
2022/07/01 00:38:51;;;;;;;3.97;2.60;;;;;;;;;;4970309;28;20266;-85
2022/07/01 00:41:21;;;;;;;6.70;3.40;;;;;;;;;;4970381;28;20282;-86
2022/07/01 00:43:48;;;;;;;6.00;2.33;;;;;;;;;;4970489;28;20651;-86
2022/07/01 00:46:16;;;;;;;4.83;2.77;;;;;;;;;;4970678;28;20201;-85
2022/07/01 00:48:43;;;;;;;3.13;2.67;;;;;;;;;;4970034;28;20213;-85
2022/07/01 00:51:10;;;;;;;3.20;2.50;;;;;;;;;;4970317;28;20555;-85
2022/07/01 00:53:37;;;;;;;2.90;2.70;;;;;;;;;;4970499;28;20193;-85
2022/07/01 00:56:06;;;;;;;4.37;2.70;;;;;;;;;;4970056;28;20290;-86
2022/07/01 00:58:33;;;;;;;6.47;2.60;;;;;;;;;;4969889;28;20251;-85
2022/07/01 01:01:00;;;;;;;2.33;2.13;;;;;;;;;;4970146;28;20225;-86
2022/07/01 01:03:27;;;;;;;3.23;2.80;;;;;;;;;;4970056;28;20209;-85
2022/07/01 01:05:56;;;;;;;6.80;3.10;;;;;;;;;;4970355;28;20251;-85
2022/07/01 01:08:25;;;;;;;2.80;2.60;;;;;;;;;;4970004;28;20197;-84
2022/07/01 01:10:53;;;;;;;4.40;2.70;;;;;;;;;;4969246;28;20225;-85
2022/07/01 01:13:21;;;;;;;6.70;2.90;;;;;;;;;;4970225;28;20658;-85
2022/07/01 01:15:49;;;;;;;3.80;3.20;;;;;;;;;;4969855;28;20247;-85
2022/07/01 01:18:16;;;;;;;3.03;2.73;;;;;;;;;;4970018;28;20201;-85
2022/07/01 01:20:44;;;;;;;4.47;3.03;;;;;;;;;;4969846;28;20233;-85
2022/07/01 01:23:11;;;;;;;3.33;3.00;;;;;;;;;;4969849;28;20197;-85
2022/07/01 01:25:38;;;;;;;7.13;3.30;;;;;;;;;;4969552;28;20205;-85
2022/07/01 01:28:06;;;;;;;3.77;3.23;;;;;;;;;;4969583;28;20197;-85
2022/07/01 01:30:33;;;;;;;3.67;3.37;;;;;;;;;;4969858;28;20387;-85
2022/07/01 01:33:07;;;;;;;3.23;2.93;;;;;;;;;;4969961;28;20194;-84
2022/07/01 01:35:34;;;;;;;6.67;3.53;;;;;;;;;;4969894;28;20707;-85
2022/07/01 01:38:06;;;;;;;3.97;3.10;;;;;;;;;;4971340;28;20201;-85
2022/07/01 01:40:33;;;;;;;4.67;3.07;;;;;;;;;;4972979;28;20654;-85
2022/07/01 01:43:00;;;;;;;3.90;3.30;;;;;;;;;;4972998;28;20262;-85
2022/07/01 01:45:28;;;;;;;7.27;3.43;;;;;;;;;;4973061;28;20626;-85
2022/07/01 01:47:55;;;;;;;4.97;3.73;;;;;;;;;;4972721;28;20205;-85
2022/07/01 01:50:31;;;;;;;5.13;4.13;;;;;;;;;;4972791;28;20201;-85
2022/07/01 01:52:58;;;;;;;6.03;4.03;;;;;;;;;;4973035;28;20201;-85
2022/07/01 01:55:27;;;;;;;6.07;4.30;;;;;;;;;;4972189;28;20664;-85
2022/07/01 01:57:56;;;;;;;5.63;4.37;;;;;;;;;;4972662;28;20204;-85
2022/07/01 02:00:23;;;;;;;4.97;4.47;;;;;;;;;;4972687;28;20712;-85
2022/07/01 02:02:50;;;;;;;7.40;4.23;;;;;;;;;;4972884;28;20201;-85
2022/07/01 02:05:18;;;;;;;4.57;4.20;;;;;;;;;;4972511;28;20201;-85
2022/07/01 02:07:45;;;;;;;4.90;4.50;;;;;;;;;;4972581;28;20681;-85
2022/07/01 02:10:12;;;;;;;8.40;4.60;;;;;;;;;;4972622;28;20255;-84
2022/07/01 02:12:41;;;;;;;4.03;3.73;;;;;;;;;;4972180;28;20201;-85
2022/07/01 02:15:09;;;;;;;4.60;4.20;;;;;;;;;;4972509;28;20206;-85
2022/07/01 02:17:36;;;;;;;4.10;3.80;;;;;;;;;;4972283;28;20316;-85
2022/07/01 02:20:04;;;;;;;4.70;4.10;;;;;;;;;;4972193;28;20232;-85
2022/07/01 02:22:31;;;;;;;6.83;4.57;;;;;;;;;;4972438;28;20201;-85
2022/07/01 02:24:58;;;;;;;3.90;3.60;;;;;;;;;;4972436;28;20194;-86
2022/07/01 02:27:25;;;;;;;8.63;4.33;;;;;;;;;;4972429;28;20203;-85
2022/07/01 02:29:53;;;;;;;5.90;3.90;;;;;;;;;;4972125;28;20193;-85
2022/07/01 02:32:21;;;;;;;3.77;3.47;;;;;;;;;;4972561;28;20220;-85
2022/07/01 02:34:48;;;;;;;4.47;3.97;;;;;;;;;;4972198;28;20223;-85
2022/07/01 02:37:15;;;;;;;7.63;3.63;;;;;;;;;;4972427;28;20208;-85
2022/07/01 02:39:42;;;;;;;4.67;3.40;;;;;;;;;;4972147;28;20197;-85
2022/07/01 02:42:26;;;;;;;4.00;3.50;;;;;;;;;;4972238;28;20201;-86
2022/07/01 02:44:54;;;;;;;5.07;3.20;;;;;;;;;;4971384;28;20197;-84
2022/07/01 02:47:22;;;;;;;8.73;4.00;;;;;;;;;;4974044;28;20201;-81
2022/07/01 02:49:49;;;;;;;4.40;3.53;;;;;;;;;;4987217;28;20199;-81
2022/07/01 02:52:16;;;;;;;3.77;3.47;;;;;;;;;;4971735;28;20268;-86
2022/07/01 02:54:43;;;;;;;5.77;4.20;;;;;;;;;;4972030;28;20322;-86
2022/07/01 02:57:10;;;;;;;4.73;4.17;;;;;;;;;;4972206;28;20186;-87
2022/07/01 02:59:38;;;;;;;4.93;3.90;;;;;;;;;;4972513;28;20234;-87
2022/07/01 03:02:06;;;;;;;5.23;3.63;;;;;;;;;;4972142;28;20236;-87
2022/07/01 03:04:33;;;;;;;3.57;3.27;;;;;;;;;;4971896;28;20293;-86
2022/07/01 03:07:00;;;;;;;5.00;4.57;;;;;;;;;;4971993;28;20246;-87
2022/07/01 03:09:34;;;;;;;4.30;3.90;;;;;;;;;;4971582;28;20301;-86
2022/07/01 03:12:24;;;;;;;7.20;4.23;;;;;;;;;;4971757;28;20201;-86
2022/07/01 03:14:52;;;;;;;9.47;4.70;;;;;;;;;;4971500;28;20200;-86
2022/07/01 03:17:21;;;;;;;4.43;3.70;;;;;;;;;;4972004;28;20580;-87
2022/07/01 03:19:48;;;;;;;3.80;3.20;;;;;;;;;;4971777;28;20201;-86
2022/07/01 03:22:15;;;;;;;5.30;3.60;;;;;;;;;;4971450;28;20229;-86
2022/07/01 03:24:42;;;;;;;5.57;3.77;;;;;;;;;;4971662;28;20259;-86
2022/07/01 03:27:09;;;;;;;3.87;3.40;;;;;;;;;;4971819;28;20259;-86
2022/07/01 03:29:37;;;;;;;3.57;3.33;;;;;;;;;;4971487;28;20214;-85
2022/07/01 03:32:04;;;;;;;3.93;3.40;;;;;;;;;;4971700;28;20209;-86
2022/07/01 03:34:36;;;;;;;3.90;3.20;;;;;;;;;;4971293;28;20201;-86
2022/07/01 03:37:03;;;;;;;7.23;3.90;;;;;;;;;;4971379;28;20208;-86
2022/07/01 03:39:33;;;;;;;4.47;3.67;;;;;;;;;;4970966;28;20282;-86
2022/07/01 03:42:05;;;;;;;8.10;3.10;;;;;;;;;;4971371;28;20229;-85
2022/07/01 03:44:32;;;;;;;2.97;2.77;;;;;;;;;;4971133;28;20200;-85
2022/07/01 03:46:59;;;;;;;3.87;3.43;;;;;;;;;;4971565;28;20197;-94
2022/07/01 03:49:32;;;;;;;4.50;3.60;;;;;;;;;;4973229;28;20212;-95
2022/07/01 03:52:41;;;;;;;7.10;3.70;;;;;;;;;;4985160;28;20203;-95
2022/07/01 03:55:24;;;;;;;3.93;3.53;;;;;;;;;;4970144;28;20328;-94
2022/07/01 03:58:00;;;;;;;5.13;3.10;;;;;;;;;;4972501;28;20208;-95
2022/07/01 04:00:28;;;;;;;6.00;2.90;;;;;;;;;;4971782;28;20220;-96
2022/07/01 04:02:55;;;;;;;5.80;2.97;;;;;;;;;;4972845;28;20211;-96
2022/07/01 04:05:25;;;;;;;3.40;3.10;;;;;;;;;;4972511;28;20640;-95
2022/07/01 04:07:52;;;;;;;3.70;2.90;;;;;;;;;;4977457;28;20209;-96
2022/07/01 04:10:20;;;;;;;4.43;3.30;;;;;;;;;;4982926;28;20220;-95
2022/07/01 04:12:49;;;;;;;4.03;3.70;;;;;;;;;;4972226;28;20204;-93
2022/07/01 04:15:17;;;;;;;6.27;3.30;;;;;;;;;;4971691;28;20204;-95
2022/07/01 04:17:44;;;;;;;5.00;4.03;;;;;;;;;;4971590;28;20300;-93
2022/07/01 04:20:12;;;;;;;5.40;3.17;;;;;;;;;;4971494;28;20234;-94
2022/07/01 04:22:38;;;;;;;2.93;2.73;;;;;;;;;;4971495;28;20258;-93
2022/07/01 04:25:07;;;;;;;8.87;3.13;;;;;;;;;;4971502;28;20205;-95
2022/07/01 04:27:34;;;;;;;5.33;3.40;;;;;;;;;;4971553;28;20636;-95
2022/07/01 04:30:03;;;;;;;3.53;2.87;;;;;;;;;;4973061;28;20685;-96
2022/07/01 04:32:31;;;;;;;4.77;2.70;;;;;;;;;;4978810;28;20208;-96
2022/07/01 04:35:01;;;;;;;4.40;3.10;;;;;;;;;;4975609;28;20226;-96
2022/07/01 04:38:04;;;;;;;3.80;3.10;;;;;;;;;;4972172;28;20220;-95
2022/07/01 04:40:31;;;;;;;4.83;2.73;;;;;;;;;;4971290;28;20661;-94
2022/07/01 04:42:57;;;;;;;3.33;2.30;;;;;;;;;;4971405;28;20201;-94
2022/07/01 04:45:29;;;;;;;9.10;2.97;;;;;;;;;;4971083;28;20209;-93
2022/07/01 04:47:56;;;;;;;4.47;3.10;;;;;;;;;;4971335;28;20215;-92
2022/07/01 04:50:23;;;;;;;5.97;2.97;;;;;;;;;;4971309;28;20201;-93
2022/07/01 04:52:50;;;;;;;3.30;3.10;;;;;;;;;;4971287;28;20232;-93
2022/07/01 04:55:17;;;;;;;5.30;3.47;;;;;;;;;;4969224;28;20290;-94
2022/07/01 04:57:53;;;;;;;4.90;3.23;;;;;;;;;;4970804;28;20201;-92
2022/07/01 05:00:20;;;;;;;6.17;3.30;;;;;;;;;;4970734;28;20196;-93
2022/07/01 05:02:49;;;;;;;3.80;3.10;;;;;;;;;;4970970;28;20287;-93
2022/07/01 05:05:16;;;;;;;8.63;4.10;;;;;;;;;;4970635;28;20197;-95
2022/07/01 05:07:52;;;;;;;4.03;3.13;;;;;;;;;;4970758;28;20193;-92
2022/07/01 05:10:28;;;;;;;6.23;3.20;;;;;;;;;;4970695;28;20189;-93
2022/07/01 05:12:58;;;;;;;3.87;3.10;;;;;;;;;;4972162;28;20295;-91
2022/07/01 05:15:34;;;;;;;6.13;3.50;;;;;;;;;;4973910;28;20662;-93
2022/07/01 05:23:37;;;;;;;11.03;4.30;;;;;;;;;;4974411;28;20193;-92
2022/07/01 05:26:16;;;;;;;5.47;3.17;;;;;;;;;;4974016;28;20625;-94
2022/07/01 05:28:43;;;;;;;6.03;4.00;;;;;;;;;;4973975;28;20228;-94
2022/07/01 05:31:16;;;;;;;6.90;3.77;;;;;;;;;;4974153;28;20193;-92
2022/07/01 05:33:45;;;;;;;6.67;3.50;;;;;;;;;;4974104;28;20228;-91
2022/07/01 05:36:12;;;;;;;6.67;4.03;;;;;;;;;;4974203;28;20225;-92
2022/07/01 05:38:48;;;;;;;4.40;2.80;;;;;;;;;;4974231;28;20274;-96
2022/07/01 05:41:24;;;;;;;6.90;3.10;;;;;;;;;;4973730;28;20783;-93
2022/07/01 05:43:57;;;;;;;6.77;3.50;;;;;;;;;;4973684;28;20205;-93
2022/07/01 05:46:27;;;;;;;7.20;4.40;;;;;;;;;;4973729;28;20635;-94
2022/07/01 05:48:56;;;;;;;3.30;3.07;;;;;;;;;;4974306;28;20197;-93
2022/07/01 05:51:26;;;;;;;4.60;3.43;;;;;;;;;;4973699;28;20200;-95
2022/07/01 05:53:53;;;;;;;5.53;3.20;;;;;;;;;;4973395;28;20556;-92
2022/07/01 05:56:26;;;;;;;7.00;3.43;;;;;;;;;;4972271;28;20271;-90
2022/07/01 05:58:54;;;;;;;5.50;2.73;;;;;;;;;;4973691;28;20205;-91
2022/07/01 06:01:24;;;;;;;3.57;3.10;;;;;;;;;;4973588;28;20221;-91
2022/07/01 06:03:58;;;;;;;6.53;3.90;;;;;;;;;;4973347;28;20208;-90
2022/07/01 06:06:37;;;;;;;8.10;3.77;;;;;;;;;;4973413;28;20203;-91
2022/07/01 06:09:04;;;;;;;3.27;2.93;;;;;;;;;;4973242;28;20228;-91
2022/07/01 06:11:37;;;;;;;5.70;3.43;;;;;;;;;;4973607;28;20202;-92
2022/07/01 06:14:13;;;;;;;5.50;3.50;;;;;;;;;;4973568;28;20734;-92
2022/07/01 06:16:49;;;;;;;7.93;3.40;;;;;;;;;;4973059;28;20189;-90
2022/07/01 06:19:30;;;;;;;5.00;3.93;;;;;;;;;;4973622;28;20209;-93
2022/07/01 06:21:57;;;;;;;4.00;3.60;;;;;;;;;;4973105;28;20284;-92
2022/07/01 06:24:27;;;;;;;6.23;3.07;;;;;;;;;;4972752;28;20634;-91
2022/07/01 06:26:54;;;;;;;7.13;3.30;;;;;;;;;;4973548;28;20205;-93
2022/07/01 06:29:27;;;;;;;6.60;3.43;;;;;;;;;;4973256;28;20255;-91
2022/07/01 06:31:54;;;;;;;4.87;3.33;;;;;;;;;;4973100;28;20201;-90
2022/07/01 06:34:21;;;;;;;5.93;3.83;;;;;;;;;;4973067;28;20627;-93
2022/07/01 06:36:49;;;;;;;5.60;3.57;;;;;;;;;;4972683;28;20291;-92
2022/07/01 06:39:16;;;;;;;11.97;3.90;;;;;;;;;;4972944;28;20651;-93
2022/07/01 06:41:47;;;;;;;3.67;3.30;;;;;;;;;;4972866;28;20701;-93
2022/07/01 06:44:17;;;;;;;4.90;3.43;;;;;;;;;;4972755;28;20619;-91
2022/07/01 06:46:44;;;;;;;7.40;3.07;;;;;;;;;;4973728;28;20205;-93
2022/07/01 06:49:20;;;;;;;8.90;3.77;;;;;;;;;;4972790;28;20570;-91
2022/07/01 06:51:47;;;;;;;11.87;3.77;;;;;;;;;;4972711;28;20207;-92
2022/07/01 06:54:17;;;;;;;7.13;3.63;;;;;;;;;;4972906;28;20201;-93
2022/07/01 06:56:47;;;;;;;7.17;4.00;;;;;;;;;;4972535;28;20615;-92
2022/07/01 06:59:15;;;;;;;5.67;3.73;;;;;;;;;;4972939;28;20197;-92
2022/07/01 07:01:45;;;;;;;10.93;4.17;;;;;;;;;;4972626;28;20247;-93
2022/07/01 07:04:30;;;;;;;3.87;3.40;;;;;;;;;;4972443;28;20198;-94
2022/07/01 07:06:57;;;;;;;10.23;4.10;;;;;;;;;;4972628;28;20205;-93
2022/07/01 07:09:29;;;;;;;7.00;4.33;;;;;;;;;;4972528;28;20205;-90
2022/07/01 07:11:56;;;;;;;7.00;4.30;;;;;;;;;;4972415;28;20209;-91
2022/07/01 07:14:23;;;;;;;6.17;4.40;;;;;;;;;;4972268;28;20193;-90
2022/07/01 07:16:51;;;;;;;6.10;3.93;;;;;;;;;;4972230;28;20209;-93
2022/07/01 07:19:20;;;;;;;6.03;3.70;;;;;;;;;;4972399;28;20205;-91
2022/07/01 07:21:48;;;;;;;7.18;4.13;;;;;;;;;;4972080;28;20252;-93
2022/07/01 07:24:18;;;;;;;5.38;3.65;;;;;;;;;;4972570;28;20197;-92
2022/07/01 07:26:47;;;;;;;5.28;3.97;;;;;;;;;;4972463;28;20197;-92
2022/07/01 07:29:17;;;;;;;4.82;3.50;;;;;;;;;;4972255;28;20201;-93
2022/07/01 07:31:44;;;;;;;5.38;3.65;;;;;;;;;;4972759;28;20536;-92
2022/07/01 07:34:23;;;;;;;6.43;3.37;;;;;;;;;;4972033;28;20613;-91
2022/07/01 07:36:50;;;;;;;5.93;4.18;;;;;;;;;;4971635;28;20193;-93
2022/07/01 07:39:17;;;;;;;6.38;3.80;;;;;;;;;;4971885;28;20216;-91
2022/07/01 07:41:46;;;;;;;4.18;3.03;;;;;;;;;;4971907;28;20225;-92
2022/07/01 07:44:13;;;;;;;4.20;3.38;;;;;;;;;;4971957;28;20227;-92
2022/07/01 07:46:40;;;;;;;4.57;3.15;;;;;;;;;;4971525;28;20677;-92
2022/07/01 07:49:07;;;;;;;5.10;4.00;;;;;;;;;;4972348;28;20205;-91
2022/07/01 07:51:37;;;;;;;4.70;3.80;;;;;;;;;;4971832;28;20284;-90
2022/07/01 07:54:08;;;;;;;4.03;3.35;;;;;;;;;;4971874;28;20217;-92
2022/07/01 07:56:38;;;;;;;4.25;3.67;;;;;;;;;;4971128;28;20236;-92
2022/07/01 07:59:09;;;;;;;6.38;3.55;;;;;;;;;;4971766;28;20188;-92
2022/07/01 08:01:39;;;;;;;7.97;4.47;;;;;;;;;;4971857;28;20231;-92
2022/07/01 08:04:06;;;;;;;5.30;3.30;;;;;;;;;;4971674;28;20197;-92
2022/07/01 08:06:33;;;;;;;4.68;3.83;;;;;;;;;;4972230;28;20629;-92
2022/07/01 08:09:07;;;;;;;3.15;2.85;;;;;;;;;;4971583;28;20254;-90
2022/07/01 08:11:37;;;;;;;3.45;2.80;;;;;;;;;;4971182;28;20201;-92
2022/07/01 08:14:09;;;;;;;8.98;3.70;;;;;;;;;;4971763;28;20205;-93
2022/07/01 08:16:36;;;;;;;14.00;3.60;;;;;;;;;;4971666;28;20219;-92
2022/07/01 08:19:06;;;;;;;3.97;3.30;;;;;;;;;;4971680;28;20209;-91
2022/07/01 08:21:36;;;;;;;3.65;3.42;;;;;;;;;;4971379;28;20262;-93
2022/07/01 08:24:03;;;;;;;3.65;2.83;;;;;;;;;;4971463;28;20743;-92
2022/07/01 08:26:39;;;;;;;3.58;3.28;;;;;;;;;;4971608;28;20201;-92
2022/07/01 08:29:06;;;;;;;5.10;3.05;;;;;;;;;;4971304;28;20201;-93
2022/07/01 08:31:41;;;;;;;4.45;3.47;;;;;;;;;;4971407;28;20288;-91
2022/07/01 08:34:20;;;;;;;4.95;3.40;;;;;;;;;;4971390;28;20201;-92
2022/07/01 08:36:50;;;;;;;4.18;3.00;;;;;;;;;;4972051;28;20205;-91
2022/07/01 08:39:20;;;;;;;5.25;2.95;;;;;;;;;;4971335;28;20205;-91
2022/07/01 08:41:48;;;;;;;4.28;3.17;;;;;;;;;;4971142;28;20197;-92
2022/07/01 08:44:18;;;;;;;3.95;3.20;;;;;;;;;;4971427;28;20755;-92
2022/07/01 08:46:50;;;;;;;3.88;3.35;;;;;;;;;;4973594;28;20231;-91
2022/07/01 08:49:22;;;;;;;3.58;3.25;;;;;;;;;;4974654;28;20197;-92
2022/07/01 08:51:49;;;;;;;4.38;3.70;;;;;;;;;;4974656;28;20201;-91
2022/07/01 08:54:19;;;;;;;5.72;4.13;;;;;;;;;;4974462;28;20262;-91
2022/07/01 08:56:46;;;;;;;3.00;2.78;;;;;;;;;;4974354;28;20232;-93
2022/07/01 08:59:29;;;;;;;4.72;3.42;;;;;;;;;;4974487;28;20681;-91
2022/07/01 09:02:10;;;;;;;4.30;4.00;;;;;;;;;;4974693;28;20221;-93
2022/07/01 09:04:37;;;;;;;4.30;3.13;;;;;;;;;;4974291;28;20201;-95
2022/07/01 09:07:33;;;;;;;4.70;3.38;;;;;;;;;;4974516;28;20228;-92
2022/07/01 09:10:14;;;;;;;7.90;3.47;;;;;;;;;;4974527;28;20212;-92
2022/07/01 09:12:41;;;;;;;3.70;3.40;;;;;;;;;;4974537;28;20576;-94
2022/07/01 09:15:21;;;;;;;5.35;3.45;;;;;;;;;;4974117;28;20295;-93
2022/07/01 09:17:53;;;;;;;4.45;3.83;;;;;;;;;;4974500;28;20274;-93
2022/07/01 09:20:41;;;;;;;3.83;3.35;;;;;;;;;;4974047;28;20232;-93
2022/07/01 09:23:10;;;;;;;5.35;3.22;;;;;;;;;;4973934;28;20233;-92
2022/07/01 09:25:39;;;;;;;14.60;4.93;;;;;;;;;;4973993;28;20205;-92
2022/07/01 09:28:08;;;;;;;4.90;3.45;;;;;;;;;;4974135;28;20205;-93
2022/07/01 09:30:36;;;;;;;4.47;3.25;;;;;;;;;;4974074;28;20201;-93
2022/07/01 09:33:18;;;;;;;5.63;3.35;;;;;;;;;;4973924;28;20197;-93
2022/07/01 09:35:48;;;;;;;3.50;3.13;;;;;;;;;;4974888;28;20189;-92
2022/07/01 09:38:26;;;;;;;7.38;4.63;;;;;;;;;;4973948;28;20197;-93
2022/07/01 09:41:01;;;;;;;10.45;4.05;;;;;;;;;;4976402;28;20747;-92
2022/07/01 09:43:56;;;;;;;3.97;3.53;;;;;;;;;;4973597;28;20228;-93
2022/07/01 09:46:29;;;;;;;4.15;3.47;;;;;;;;;;4974112;28;20232;-93
2022/07/01 09:49:01;;;;;;;6.97;3.90;;;;;;;;;;4973751;28;20232;-92
2022/07/01 09:51:31;;;;;;;3.72;3.42;;;;;;;;;;4974543;28;20212;-95
2022/07/01 09:53:59;;;;;;;5.28;4.85;;;;;;;;;;4973746;28;20213;-93
2022/07/01 09:56:26;;;;;;;11.13;6.63;;;;;;;;;;4973494;28;20236;-92
2022/07/01 09:58:59;;;;;;;6.55;4.68;;;;;;;;;;4972742;28;20205;-94
2022/07/01 10:01:33;;;;;;;3.15;2.95;;;;;;;;;;4973449;28;20201;-93
2022/07/01 10:04:05;;;;;;;4.97;3.50;;;;;;;;;;4973438;28;20231;-93
2022/07/01 10:06:44;;;;;;;5.70;3.88;;;;;;;;;;4973471;28;20775;-94
2022/07/01 10:09:37;;;;;;;4.60;3.47;;;;;;;;;;4973852;28;20197;-93
2022/07/01 10:12:36;;;;;;;6.82;4.70;;;;;;;;;;4973521;28;20217;-93
2022/07/01 10:15:05;;;;;;;26.15;16.27;;;;;;;;;;4973353;28;20212;-92
2022/07/01 10:17:36;;;;;;;15.85;11.23;;;;;;;;;;4973364;28;20583;-92
2022/07/01 10:20:26;;;;;;;15.85;11.50;;;;;;;;;;4973389;28;20239;-93
2022/07/01 10:23:02;;;;;;;8.55;4.07;;;;;;;;;;4973598;28;20248;-94
2022/07/01 10:25:35;;;;;;;4.07;3.78;;;;;;;;;;4973094;28;20218;-94
2022/07/01 10:28:30;;;;;;;5.88;4.40;;;;;;;;;;4973372;28;20205;-92
2022/07/01 10:31:01;;;;;;;31.35;19.67;;;;;;;;;;4973331;28;20674;-94
2022/07/01 10:34:08;;;;;;;6.80;4.07;;;;;;;;;;4973243;28;20250;-95
2022/07/01 10:36:43;;;;;;;69.60;43.30;;;;;;;;;;5004527;28;20257;-93
2022/07/01 10:39:27;;;;;;;13.15;7.28;;;;;;;;;;4975931;28;20231;-92
2022/07/01 10:42:15;;;;;;;6.00;4.15;;;;;;;;;;4973214;28;20668;-93
2022/07/01 10:45:06;;;;;;;6.93;5.80;;;;;;;;;;4975345;28;20278;-92
2022/07/01 10:47:37;;;;;;;5.10;4.20;;;;;;;;;;4972944;28;20219;-94
2022/07/01 10:50:07;;;;;;;7.30;5.70;;;;;;;;;;4973249;28;20570;-94
2022/07/01 10:52:36;;;;;;;9.63;4.30;;;;;;;;;;4973744;28;20205;-93
2022/07/01 10:55:04;;;;;;;9.05;5.22;;;;;;;;;;4972787;28;20320;-96
2022/07/01 10:57:35;;;;;;;4.50;4.10;;;;;;;;;;4973639;28;20212;-91
2022/07/01 11:00:37;;;;;;;4.18;3.40;;;;;;;;;;4973503;28;20205;-93
2022/07/01 11:03:21;;;;;;;4.00;3.70;;;;;;;;;;4974303;28;20228;-95
2022/07/01 11:05:54;;;;;;;4.85;4.28;;;;;;;;;;4973431;28;20193;-93
2022/07/01 11:08:25;;;;;;;18.27;5.93;;;;;;;;;;4975367;28;20711;-94
2022/07/01 11:11:04;;;;;;;20.50;6.78;;;;;;;;;;4976284;28;20204;-90
2022/07/01 11:13:32;;;;;;;11.27;5.90;;;;;;;;;;4972578;28;20293;-93
2022/07/01 11:16:02;;;;;;;19.47;7.20;;;;;;;;;;4973241;28;20201;-94
2022/07/01 11:18:32;;;;;;;9.37;6.20;;;;;;;;;;4972353;28;20201;-94
2022/07/01 11:21:07;;;;;;;8.43;6.33;;;;;;;;;;4973278;28;20212;-94
2022/07/01 11:23:36;;;;;;;7.67;5.67;;;;;;;;;;4980437;28;20331;-93
2022/07/01 11:26:03;;;;;;;10.37;5.53;;;;;;;;;;4972919;28;20212;-94
2022/07/01 11:28:31;;;;;;;7.90;6.87;;;;;;;;;;4972909;28;20205;-93
2022/07/01 11:31:01;;;;;;;8.47;7.77;;;;;;;;;;4972451;28;20205;-93
2022/07/01 11:33:31;;;;;;;6.30;5.73;;;;;;;;;;4971955;28;20197;-93
2022/07/01 11:39:24;;;;;;;6.10;5.47;;;;;;;;;;4971953;28;20281;-94
2022/07/01 11:41:56;;;;;;;5.73;5.20;;;;;;;;;;4972386;28;20641;-93
2022/07/01 11:44:31;;;;;;;7.70;5.83;;;;;;;;;;4971860;28;20656;-94
2022/07/01 11:47:05;;;;;;;6.07;5.60;;;;;;;;;;4971858;28;20204;-95
2022/07/01 11:49:32;;;;;;;6.33;5.20;;;;;;;;;;4971988;28;20204;-94
2022/07/01 11:52:01;;;;;;;6.00;4.97;;;;;;;;;;4971846;28;20290;-93
2022/07/01 11:54:39;;;;;;;5.97;5.37;;;;;;;;;;4972034;28;20201;-92
2022/07/01 11:57:17;;;;;;;6.33;4.90;;;;;;;;;;4952698;29;20197;-93
2022/07/01 11:59:52;;;;;;;6.17;5.33;;;;;;;;;;4952810;28;20671;-93
2022/07/01 12:02:23;;;;;;;10.27;5.03;;;;;;;;;;4953076;28;20213;-94
2022/07/01 12:04:51;;;;;;;5.30;4.80;;;;;;;;;;4952271;29;20226;-93
2022/07/01 12:07:22;;;;;;;13.50;6.03;;;;;;;;;;4952498;29;20225;-93
2022/07/01 12:09:53;;;;;;;8.80;5.67;;;;;;;;;;4952479;28;20723;-93
2022/07/01 12:12:24;;;;;;;4.90;4.60;;;;;;;;;;4952444;29;20202;-94
2022/07/01 12:14:53;;;;;;;5.47;4.50;;;;;;;;;;4952481;29;20206;-94
2022/07/01 12:17:20;;;;;;;7.03;5.40;;;;;;;;;;4952353;29;20343;-92
2022/07/01 12:19:48;;;;;;;8.53;5.10;;;;;;;;;;4952286;28;20641;-94
2022/07/01 12:22:24;;;;;;;6.93;6.17;;;;;;;;;;4951663;29;20288;-94
2022/07/01 12:24:55;;;;;;;6.00;5.40;;;;;;;;;;4952034;29;20264;-95
2022/07/01 12:27:22;;;;;;;6.60;4.90;;;;;;;;;;4952478;29;20217;-94
2022/07/01 12:29:52;;;;;;;5.87;5.40;;;;;;;;;;4952239;28;20642;-94
2022/07/01 12:32:23;;;;;;;5.77;5.33;;;;;;;;;;4952518;28;20210;-95
2022/07/01 12:34:52;;;;;;;7.07;5.00;;;;;;;;;;4952023;28;20313;-95
2022/07/01 12:37:21;;;;;;;4.93;4.43;;;;;;;;;;4952417;29;20205;-95
2022/07/01 12:39:54;;;;;;;5.90;5.37;;;;;;;;;;4951918;28;20231;-94
2022/07/01 12:42:26;;;;;;;5.37;4.90;;;;;;;;;;4951980;28;20263;-96
2022/07/01 12:44:54;;;;;;;7.73;4.97;;;;;;;;;;4951709;29;20225;-94
2022/07/01 12:47:27;;;;;;;7.28;5.38;;;;;;;;;;4951915;29;20206;-95
2022/07/01 12:50:20;;;;;;;5.33;4.93;;;;;;;;;;4952254;29;20205;-95
2022/07/01 12:52:59;;;;;;;7.45;4.60;;;;;;;;;;4953018;28;20208;-95
2022/07/01 12:55:29;;;;;;;5.75;5.22;;;;;;;;;;4958736;28;20786;-96
2022/07/01 12:57:58;;;;;;;5.70;5.07;;;;;;;;;;4971729;28;20209;-95
2022/07/01 13:00:42;;;;;;;4.75;4.45;;;;;;;;;;4972163;28;20220;-95
2022/07/01 13:03:10;;;;;;;5.57;5.07;;;;;;;;;;4972627;28;20225;-95
2022/07/01 13:05:41;;;;;;;9.10;4.97;;;;;;;;;;4978015;28;20209;-95
2022/07/01 13:08:10;;;;;;;15.00;5.45;;;;;;;;;;4980002;28;20201;-96
2022/07/01 13:11:05;;;;;;;5.72;4.22;;;;;;;;;;4984785;28;20209;-95
2022/07/01 13:13:38;;;;;;;6.10;5.20;;;;;;;;;;4985710;28;20227;-95
2022/07/01 13:16:06;;;;;;;5.25;4.63;;;;;;;;;;4980470;28;20220;-95
2022/07/01 13:18:33;;;;;;;5.13;4.63;;;;;;;;;;4986920;28;20209;-95
2022/07/01 13:21:01;;;;;;;4.60;4.20;;;;;;;;;;4985613;28;20260;-95
2022/07/01 13:23:31;;;;;;;4.35;3.95;;;;;;;;;;4986801;28;20304;-96
2022/07/01 13:26:03;;;;;;;8.75;4.50;;;;;;;;;;4987223;28;20208;-96
2022/07/01 13:28:31;;;;;;;7.00;5.32;;;;;;;;;;4987326;28;20641;-95
2022/07/01 13:30:58;;;;;;;5.53;4.85;;;;;;;;;;4983484;28;20227;-95
2022/07/01 13:33:46;;;;;;;5.05;4.50;;;;;;;;;;4986117;28;20201;-95
2022/07/01 13:36:27;;;;;;;5.38;4.85;;;;;;;;;;4987757;28;20269;-95
2022/07/01 13:39:05;;;;;;;4.38;4.05;;;;;;;;;;4985712;28;20212;-95
2022/07/01 13:41:35;;;;;;;11.65;4.60;;;;;;;;;;4984875;28;20286;-95
2022/07/01 13:44:09;;;;;;;7.10;5.00;;;;;;;;;;4981751;28;20282;-96
2022/07/01 13:46:39;;;;;;;9.10;4.60;;;;;;;;;;4983007;28;20228;-96
2022/07/01 13:49:07;;;;;;;5.30;4.80;;;;;;;;;;4977228;28;20669;-95
2022/07/01 13:51:40;;;;;;;4.63;4.32;;;;;;;;;;4974479;28;20212;-96
2022/07/01 13:54:10;;;;;;;4.57;4.22;;;;;;;;;;4978459;28;20209;-95
2022/07/01 13:56:39;;;;;;;4.65;4.35;;;;;;;;;;4975458;28;20798;-95
2022/07/01 13:59:09;;;;;;;5.00;4.60;;;;;;;;;;4979381;28;20205;-94
2022/07/01 14:01:52;;;;;;;4.93;4.45;;;;;;;;;;4978057;28;20278;-95
2022/07/01 14:04:21;;;;;;;5.93;4.30;;;;;;;;;;4976533;28;20229;-94
2022/07/01 14:06:49;;;;;;;4.60;4.30;;;;;;;;;;4974465;28;20719;-95
2022/07/01 14:09:22;;;;;;;4.57;4.18;;;;;;;;;;4974730;28;20205;-94
2022/07/01 14:11:53;;;;;;;5.55;4.72;;;;;;;;;;4975195;28;20208;-95
2022/07/01 14:14:24;;;;;;;4.53;4.13;;;;;;;;;;4974505;28;20821;-96
2022/07/01 14:16:51;;;;;;;5.22;4.75;;;;;;;;;;4974575;28;20220;-95
2022/07/01 14:19:21;;;;;;;5.90;4.70;;;;;;;;;;4973943;28;20204;-93
2022/07/01 14:21:48;;;;;;;5.57;4.60;;;;;;;;;;4974068;28;20200;-96
2022/07/01 14:24:15;;;;;;;5.03;4.53;;;;;;;;;;4975200;28;20225;-94
2022/07/01 14:26:54;;;;;;;6.80;4.63;;;;;;;;;;4976181;28;20212;-95
2022/07/01 14:29:36;;;;;;;4.95;3.95;;;;;;;;;;4977322;28;20276;-95
2022/07/01 14:32:09;;;;;;;5.10;4.70;;;;;;;;;;4973490;28;20209;-93
2022/07/01 14:34:37;;;;;;;5.05;4.63;;;;;;;;;;4973398;28;20201;-94
2022/07/01 14:37:04;;;;;;;5.00;4.53;;;;;;;;;;4973681;28;20258;-93
2022/07/01 14:39:31;;;;;;;4.63;4.28;;;;;;;;;;4973298;28;20632;-94
2022/07/01 14:42:00;;;;;;;5.10;4.30;;;;;;;;;;4973560;28;20263;-96
2022/07/01 14:44:28;;;;;;;5.07;4.65;;;;;;;;;;4973141;28;20586;-95
2022/07/01 14:46:56;;;;;;;4.82;4.38;;;;;;;;;;4974832;28;20648;-94
2022/07/01 14:49:23;;;;;;;6.40;4.63;;;;;;;;;;4976572;28;20197;-95
2022/07/01 14:51:50;;;;;;;6.03;4.78;;;;;;;;;;4975245;28;20207;-95
2022/07/01 14:54:18;;;;;;;5.00;4.50;;;;;;;;;;4975456;28;20255;-94
2022/07/01 14:56:45;;;;;;;5.00;4.60;;;;;;;;;;4974154;28;20241;-93
2022/07/01 14:59:16;;;;;;;6.88;5.22;;;;;;;;;;4973195;28;20209;-93
2022/07/01 15:01:43;;;;;;;4.55;4.25;;;;;;;;;;4980000;28;20261;-95
2022/07/01 15:04:11;;;;;;;8.80;4.82;;;;;;;;;;4992520;28;20228;-95
2022/07/01 15:06:38;;;;;;;6.60;4.97;;;;;;;;;;4992530;28;20726;-96
2022/07/01 15:09:11;;;;;;;5.28;4.60;;;;;;;;;;4992402;28;20196;-94
2022/07/01 15:11:38;;;;;;;5.22;4.82;;;;;;;;;;4991976;28;20265;-94
2022/07/01 15:14:08;;;;;;;7.35;4.70;;;;;;;;;;4992086;28;20197;-94
2022/07/01 15:16:37;;;;;;;6.20;5.18;;;;;;;;;;4992234;28;20204;-95